createdAt,value
2023-04-23T00:00:08.188Z,11.30
2023-04-23T00:02:37.820Z,11.30
2023-04-23T00:05:07.465Z,11.20
2023-04-23T00:07:35.612Z,11.20
2023-04-23T00:10:09.086Z,11.20
2023-04-23T00:12:36.620Z,11.20
2023-04-23T00:15:06.940Z,11.20
2023-04-23T00:17:34.120Z,11.20
2023-04-23T00:20:01.479Z,11.30
2023-04-23T00:22:28.613Z,11.30
2023-04-23T00:24:55.821Z,11.30
2023-04-23T00:27:22.922Z,11.30
2023-04-23T00:29:51.412Z,11.30
2023-04-23T00:32:18.692Z,11.30
2023-04-23T00:34:48.825Z,11.30
2023-04-23T00:37:16.412Z,11.30
2023-04-23T00:39:44.394Z,11.30
2023-04-23T00:42:14.408Z,11.30
2023-04-23T00:44:44.543Z,11.30
2023-04-23T00:47:12.314Z,11.30
2023-04-23T00:49:39.546Z,11.30
2023-04-23T00:52:06.959Z,11.30
2023-04-23T00:54:34.697Z,11.20
2023-04-23T00:57:02.472Z,11.30
2023-04-23T00:59:31.222Z,11.20
2023-04-23T01:01:58.927Z,11.20
2023-04-23T01:04:29.652Z,11.30
2023-04-23T01:06:58.147Z,11.30
2023-04-23T01:09:27.784Z,11.20
2023-04-23T01:11:55.467Z,11.20
2023-04-23T01:14:22.623Z,11.20
2023-04-23T01:16:50.289Z,11.20
2023-04-23T01:19:17.546Z,11.20
2023-04-23T01:21:44.815Z,11.30
2023-04-23T01:24:12.409Z,11.30
2023-04-23T01:26:40.814Z,11.20
2023-04-23T01:29:08.173Z,11.20
2023-04-23T01:31:35.821Z,11.20
2023-04-23T01:34:03.326Z,11.30
2023-04-23T01:36:31.393Z,11.20
2023-04-23T01:38:58.460Z,11.30
2023-04-23T01:41:26.022Z,11.20
2023-04-23T01:43:53.713Z,11.20
2023-04-23T01:46:21.785Z,11.10
2023-04-23T01:48:49.124Z,11.20
2023-04-23T01:51:16.518Z,11.10
2023-04-23T01:53:43.601Z,11.10
2023-04-23T01:56:11.202Z,11.20
2023-04-23T01:58:38.387Z,11.20
2023-04-23T02:01:05.508Z,11.20
2023-04-23T02:03:34.184Z,11.20
2023-04-23T02:06:02.017Z,11.10
2023-04-23T02:08:29.194Z,11.10
2023-04-23T02:10:56.277Z,11.10
2023-04-23T02:13:23.743Z,11.10
2023-04-23T02:15:50.850Z,11.10
2023-04-23T02:18:17.992Z,11.00
2023-04-23T02:20:45.197Z,11.10
2023-04-23T02:23:12.528Z,11.10
2023-04-23T02:25:39.841Z,11.00
2023-04-23T02:28:08.678Z,11.10
2023-04-23T02:30:36.050Z,11.00
2023-04-23T02:33:03.946Z,11.00
2023-04-23T02:35:31.629Z,11.00
2023-04-23T02:37:58.817Z,11.00
2023-04-23T02:40:27.087Z,11.00
2023-04-23T02:42:54.679Z,11.00
2023-04-23T02:45:21.799Z,11.00
2023-04-23T02:47:48.965Z,11.00
2023-04-23T02:50:16.679Z,11.00
2023-04-23T02:52:43.837Z,11.00
2023-04-23T02:55:11.138Z,11.00
2023-04-23T02:57:38.504Z,10.90
2023-04-23T03:00:07.329Z,10.90
2023-04-23T03:02:34.764Z,10.90
2023-04-23T03:05:02.266Z,10.90
2023-04-23T03:07:29.387Z,10.90
2023-04-23T03:09:56.492Z,10.90
2023-04-23T03:12:23.755Z,10.90
2023-04-23T03:14:50.866Z,10.90
2023-04-23T03:17:17.994Z,10.90
2023-04-23T03:19:45.161Z,10.90
2023-04-23T03:22:12.273Z,10.90
2023-04-23T03:24:39.537Z,11.00
2023-04-23T03:27:06.765Z,11.00
2023-04-23T03:29:33.922Z,10.90
2023-04-23T03:32:01.085Z,10.80
2023-04-23T03:34:28.179Z,10.80
2023-04-23T03:36:55.406Z,10.80
2023-04-23T03:39:22.999Z,10.80
2023-04-23T03:41:50.116Z,10.70
2023-04-23T03:44:17.189Z,10.70
2023-04-23T03:46:44.286Z,10.70
2023-04-23T03:49:11.490Z,10.70
2023-04-23T03:51:38.562Z,10.60
2023-04-23T03:54:05.789Z,10.60
2023-04-23T03:56:32.913Z,10.60
2023-04-23T03:58:59.985Z,10.60
2023-04-23T04:01:27.148Z,10.60
2023-04-23T04:03:54.391Z,10.60
2023-04-23T04:06:21.712Z,10.60
2023-04-23T04:08:48.783Z,10.60
2023-04-23T04:11:17.152Z,10.50
2023-04-23T04:13:44.278Z,10.60
2023-04-23T04:16:11.409Z,10.50
2023-04-23T04:18:39.487Z,10.50
2023-04-23T04:21:07.103Z,10.50
2023-04-23T04:23:35.091Z,10.50
2023-04-23T04:26:02.712Z,10.50
2023-04-23T04:28:29.884Z,10.50
2023-04-23T04:30:57.705Z,10.50
2023-04-23T04:33:26.064Z,10.50
2023-04-23T04:35:54.869Z,10.50
2023-04-23T04:38:22.396Z,10.50
2023-04-23T04:40:50.667Z,10.40
2023-04-23T04:43:18.551Z,10.40
2023-04-23T04:45:45.705Z,10.50
2023-04-23T04:48:12.864Z,10.40
2023-04-23T04:50:39.973Z,10.40
2023-04-23T04:53:07.083Z,10.40
2023-04-23T04:55:34.174Z,10.40
2023-04-23T04:58:01.234Z,10.30
2023-04-23T05:00:30.353Z,10.30
2023-04-23T05:02:58.745Z,10.30
2023-04-23T05:05:27.323Z,10.30
2023-04-23T05:07:54.919Z,10.30
2023-04-23T05:10:22.201Z,10.40
2023-04-23T05:12:51.810Z,10.40
2023-04-23T05:15:19.114Z,10.50
2023-04-23T05:17:46.463Z,10.50
2023-04-23T05:20:14.427Z,10.50
2023-04-23T05:22:43.049Z,10.60
2023-04-23T05:25:12.347Z,10.60
2023-04-23T05:27:40.845Z,10.70
2023-04-23T05:30:10.647Z,10.60
2023-04-23T05:32:38.896Z,10.60
2023-04-23T05:35:07.187Z,10.60
2023-04-23T05:37:34.691Z,10.60
2023-04-23T05:40:02.868Z,10.70
2023-04-23T05:42:30.065Z,10.80
2023-04-23T05:44:57.224Z,10.80
2023-04-23T05:47:24.477Z,10.90
2023-04-23T05:49:51.602Z,11.00
2023-04-23T05:52:19.301Z,11.00
2023-04-23T05:54:46.520Z,11.10
2023-04-23T05:57:13.767Z,11.10
2023-04-23T05:59:40.861Z,11.20
2023-04-23T06:02:10.008Z,11.30
2023-04-23T06:04:38.124Z,11.30
2023-04-23T06:07:06.287Z,11.30
2023-04-23T06:09:33.743Z,11.30
2023-04-23T06:12:01.147Z,11.30
2023-04-23T06:14:28.275Z,11.40
2023-04-23T06:16:55.487Z,11.40
2023-04-23T06:19:25.090Z,11.50
2023-04-23T06:21:52.388Z,11.70
2023-04-23T06:24:19.546Z,11.90
2023-04-23T06:26:46.732Z,12.00
2023-04-23T06:29:13.779Z,12.00
2023-04-23T06:31:42.028Z,12.00
2023-04-23T06:34:09.185Z,12.00
2023-04-23T06:36:36.255Z,12.10
2023-04-23T06:39:03.574Z,12.10
2023-04-23T06:41:30.738Z,12.10
2023-04-23T06:43:57.873Z,12.10
2023-04-23T06:46:25.073Z,12.10
2023-04-23T06:48:52.152Z,12.10
2023-04-23T06:51:19.559Z,11.90
2023-04-23T06:53:47.659Z,11.90
2023-04-23T06:56:14.737Z,11.80
2023-04-23T06:58:41.880Z,11.90
2023-04-23T07:01:10.375Z,11.90
2023-04-23T07:03:37.579Z,11.90
2023-04-23T07:06:04.865Z,12.00
2023-04-23T07:08:32.562Z,12.00
2023-04-23T07:10:59.695Z,12.10
2023-04-23T07:13:26.856Z,12.20
2023-04-23T07:15:54.016Z,12.10
2023-04-23T07:18:21.338Z,12.10
2023-04-23T07:20:48.464Z,12.10
2023-04-23T07:23:15.598Z,12.20
2023-04-23T07:25:42.639Z,12.20
2023-04-23T07:28:09.794Z,12.60
2023-04-23T07:30:39.658Z,12.70
2023-04-23T07:33:06.929Z,13.00
2023-04-23T07:35:34.056Z,13.00
2023-04-23T07:38:01.202Z,12.90
2023-04-23T07:40:28.394Z,12.90
2023-04-23T07:42:56.276Z,12.90
2023-04-23T07:45:23.403Z,13.00
2023-04-23T07:47:50.925Z,13.00
2023-04-23T07:50:18.051Z,13.10
2023-04-23T07:52:45.259Z,13.20
2023-04-23T07:55:12.369Z,13.30
2023-04-23T07:57:41.602Z,13.40
2023-04-23T08:00:09.663Z,13.50
2023-04-23T08:02:36.986Z,13.60
2023-04-23T08:05:04.507Z,13.60
2023-04-23T08:07:33.425Z,13.60
2023-04-23T08:10:04.249Z,13.70
2023-04-23T08:12:31.735Z,13.70
2023-04-23T08:14:58.968Z,13.70
2023-04-23T08:17:29.162Z,13.60
2023-04-23T08:19:56.281Z,13.60
2023-04-23T08:22:23.420Z,13.80
2023-04-23T08:24:50.586Z,14.00
2023-04-23T08:27:17.693Z,14.00
2023-04-23T08:29:44.812Z,14.10
2023-04-23T08:32:11.983Z,14.20
2023-04-23T08:34:39.217Z,14.30
2023-04-23T08:37:11.720Z,14.20
2023-04-23T08:39:44.022Z,14.30
2023-04-23T08:42:27.383Z,14.50
2023-04-23T08:44:55.545Z,14.70
2023-04-23T08:47:25.491Z,14.70
2023-04-23T08:49:55.922Z,14.50
2023-04-23T08:52:26.204Z,14.40
2023-04-23T08:54:55.198Z,14.40
2023-04-23T08:57:23.894Z,14.50
2023-04-23T08:59:51.757Z,14.70
2023-04-23T09:02:19.237Z,15.00
2023-04-23T09:04:49.555Z,15.20
2023-04-23T09:07:19.416Z,15.20
2023-04-23T09:09:47.060Z,15.30
2023-04-23T09:12:14.314Z,15.50
2023-04-23T09:14:41.774Z,15.50
2023-04-23T09:17:09.285Z,15.60
2023-04-23T09:19:39.510Z,15.60
2023-04-23T09:22:08.318Z,15.70
2023-04-23T09:24:35.508Z,15.50
2023-04-23T09:27:03.927Z,15.60
2023-04-23T09:29:32.267Z,15.60
2023-04-23T09:32:10.494Z,15.70
2023-04-23T09:34:38.119Z,15.80
2023-04-23T09:37:11.913Z,15.80
2023-04-23T09:39:40.093Z,15.90
2023-04-23T09:42:09.899Z,16.10
2023-04-23T09:44:37.069Z,16.30
2023-04-23T09:47:12.572Z,16.50
2023-04-23T09:49:50.564Z,16.50
2023-04-23T09:52:19.388Z,16.60
2023-04-23T09:54:46.808Z,16.70
2023-04-23T09:57:14.207Z,16.90
2023-04-23T09:59:48.892Z,16.80
2023-04-23T10:02:19.151Z,16.80
2023-04-23T10:04:53.479Z,16.80
2023-04-23T10:07:25.767Z,17.00
2023-04-23T10:09:52.831Z,17.30
2023-04-23T10:12:41.049Z,17.50
2023-04-23T10:15:10.051Z,17.30
2023-04-23T10:17:39.097Z,17.30
2023-04-23T10:20:08.457Z,17.50
2023-04-23T10:22:38.485Z,17.60
2023-04-23T10:25:11.290Z,17.70
2023-04-23T10:27:52.229Z,17.60
2023-04-23T10:30:22.001Z,17.40
2023-04-23T10:32:51.525Z,17.20
2023-04-23T10:35:19.876Z,17.20
2023-04-23T10:37:48.492Z,17.10
2023-04-23T10:40:22.260Z,17.20
2023-04-23T10:42:51.140Z,17.30
2023-04-23T10:47:50.470Z,17.70
2023-04-23T10:50:26.516Z,17.60
2023-04-23T10:52:56.031Z,17.70
2023-04-23T10:55:33.234Z,17.70
2023-04-23T10:58:06.227Z,17.90
2023-04-23T11:00:45.747Z,17.80
2023-04-23T11:03:44.373Z,17.70
2023-04-23T11:06:20.522Z,17.90
2023-04-23T11:08:55.266Z,17.90
2023-04-23T11:11:41.358Z,18.10
2023-04-23T11:14:14.535Z,18.30
2023-04-23T11:16:41.947Z,18.70
2023-04-23T11:19:12.783Z,19.10
2023-04-23T11:22:13.748Z,19.40
2023-04-23T11:24:43.024Z,19.70
2023-04-23T11:27:17.920Z,19.90
2023-04-23T11:29:46.697Z,20.60
2023-04-23T11:32:17.510Z,20.90
2023-04-23T11:34:47.172Z,21.00
2023-04-23T11:37:16.170Z,20.90
2023-04-23T11:39:47.570Z,20.80
2023-04-23T11:42:15.890Z,20.80
2023-04-23T11:44:44.978Z,20.50
2023-04-23T11:47:16.437Z,20.20
2023-04-23T11:49:45.228Z,20.10
2023-04-23T11:52:13.195Z,20.60
2023-04-23T11:54:43.588Z,21.20
2023-04-23T11:57:10.833Z,21.50
2023-04-23T11:59:38.172Z,21.50
2023-04-23T12:02:05.563Z,22.00
2023-04-23T12:04:33.879Z,22.40
2023-04-23T12:07:03.105Z,22.60
2023-04-23T12:09:36.203Z,22.60
2023-04-23T12:12:03.244Z,22.50
2023-04-23T12:14:31.108Z,22.30
2023-04-23T12:17:09.958Z,22.40
2023-04-23T12:19:37.136Z,22.90
2023-04-23T12:22:04.810Z,22.90
2023-04-23T12:24:51.663Z,22.70
2023-04-23T12:27:22.408Z,23.10
2023-04-23T12:29:59.037Z,23.40
2023-04-23T12:32:27.171Z,22.90
2023-04-23T12:34:57.981Z,22.30
2023-04-23T12:37:31.529Z,22.90
2023-04-23T12:39:59.754Z,23.90
2023-04-23T12:42:27.627Z,23.80
2023-04-23T12:44:57.622Z,24.60
2023-04-23T12:47:24.903Z,25.70
2023-04-23T12:49:53.933Z,25.70
2023-04-23T12:52:21.700Z,25.40
2023-04-23T12:54:52.776Z,25.40
2023-04-23T12:57:23.506Z,24.70
2023-04-23T12:59:51.003Z,23.60
2023-04-23T13:02:18.453Z,24.00
2023-04-23T13:04:45.764Z,24.00
2023-04-23T13:07:12.872Z,24.30
2023-04-23T13:09:39.995Z,23.60
2023-04-23T13:12:07.142Z,22.80
2023-04-23T13:14:34.432Z,22.20
2023-04-23T13:17:01.721Z,22.00
2023-04-23T13:19:28.907Z,22.20
2023-04-23T13:21:56.038Z,22.70
2023-04-23T13:24:23.088Z,22.50
2023-04-23T13:26:50.239Z,22.70
2023-04-23T13:29:17.493Z,22.70
2023-04-23T13:31:44.575Z,23.10
2023-04-23T13:34:11.815Z,23.60
2023-04-23T13:36:41.517Z,23.70
2023-04-23T13:39:10.173Z,23.30
2023-04-23T13:41:38.305Z,23.60
2023-04-23T13:44:05.511Z,23.00
2023-04-23T13:46:32.733Z,23.00
2023-04-23T13:49:02.241Z,22.80
2023-04-23T13:51:35.712Z,22.50
2023-04-23T13:54:03.176Z,21.90
2023-04-23T13:56:31.765Z,21.40
2023-04-23T14:01:34.064Z,21.40
2023-04-23T14:04:01.964Z,21.50
2023-04-23T14:06:29.118Z,21.60
2023-04-23T14:08:56.393Z,21.80
2023-04-23T14:11:23.562Z,21.80
2023-04-23T14:13:50.755Z,21.70
2023-04-23T14:16:17.887Z,21.80
2023-04-23T14:18:45.839Z,21.40
2023-04-23T14:21:15.652Z,21.30
2023-04-23T14:23:57.121Z,21.30
2023-04-23T14:26:34.174Z,21.20
2023-04-23T14:29:30.412Z,21.30
2023-04-23T14:31:57.578Z,21.30
2023-04-23T14:34:24.724Z,21.20
2023-04-23T14:36:53.336Z,21.20
2023-04-23T14:39:22.927Z,21.10
2023-04-23T14:41:50.174Z,21.30
2023-04-23T14:44:17.312Z,21.40
2023-04-23T14:46:44.648Z,21.20
2023-04-23T14:49:11.909Z,21.20
2023-04-23T14:51:39.045Z,21.10
2023-04-23T14:54:06.394Z,21.10
2023-04-23T14:56:33.518Z,21.10
2023-04-23T14:59:00.672Z,21.20
2023-04-23T15:01:27.814Z,21.30
2023-04-23T15:03:54.990Z,21.00
2023-04-23T15:06:23.638Z,20.80
2023-04-23T15:08:50.751Z,20.60
2023-04-23T15:11:18.008Z,20.50
2023-04-23T15:14:08.574Z,20.40
2023-04-23T15:19:10.101Z,19.80
2023-04-23T15:21:37.824Z,19.80
2023-04-23T15:24:05.122Z,19.70
2023-04-23T15:26:33.897Z,19.60
2023-04-23T15:29:01.074Z,19.50
2023-04-23T15:31:28.226Z,19.50
2023-04-23T15:33:57.105Z,19.40
2023-04-23T15:36:24.151Z,19.20
2023-04-23T15:38:51.221Z,19.10
2023-04-23T15:41:18.324Z,19.00
2023-04-23T15:43:46.654Z,19.00
2023-04-23T15:46:13.759Z,19.00
2023-04-23T15:48:40.939Z,19.00
2023-04-23T15:51:08.081Z,19.00
2023-04-23T15:53:35.126Z,19.10
2023-04-23T15:56:04.520Z,19.20
2023-04-23T15:58:31.698Z,19.30
2023-04-23T16:00:58.754Z,19.40
2023-04-23T16:03:26.219Z,19.40
2023-04-23T16:05:53.556Z,19.40
2023-04-23T16:08:21.632Z,19.20
2023-04-23T16:10:48.764Z,19.10
2023-04-23T16:13:15.948Z,18.90
2023-04-23T16:15:43.022Z,18.80
2023-04-23T16:18:10.245Z,18.60
2023-04-23T16:20:37.428Z,18.40
2023-04-23T16:23:06.649Z,18.20
2023-04-23T16:25:33.774Z,18.00
2023-04-23T16:28:01.057Z,17.70
2023-04-23T16:30:28.459Z,17.00
2023-04-23T16:32:56.183Z,16.10
2023-04-23T16:35:23.352Z,15.30
2023-04-23T16:37:51.256Z,14.20
2023-04-23T16:40:19.367Z,13.30
2023-04-23T16:42:49.038Z,12.60
2023-04-23T16:45:16.824Z,12.20
2023-04-23T16:47:44.453Z,11.90
2023-04-23T16:50:11.988Z,11.70
2023-04-23T16:52:39.338Z,11.60
2023-04-23T16:55:07.266Z,11.50
2023-04-23T16:57:36.885Z,11.50
2023-04-23T17:00:08.133Z,11.50
2023-04-23T17:02:35.380Z,11.60
2023-04-23T17:05:02.608Z,11.60
2023-04-23T17:07:29.897Z,11.60
2023-04-23T17:09:57.208Z,11.70
2023-04-23T17:12:24.562Z,11.80
2023-04-23T17:14:51.873Z,11.90
2023-04-23T17:17:19.060Z,11.90
2023-04-23T17:19:46.173Z,11.80
2023-04-23T17:22:13.398Z,11.80
2023-04-23T17:24:40.705Z,11.90
2023-04-23T17:27:08.003Z,11.90
2023-04-23T17:29:35.381Z,11.90
2023-04-23T17:32:04.475Z,11.90
2023-04-23T17:34:34.491Z,11.90
2023-04-23T17:37:01.758Z,11.80
2023-04-23T17:39:28.818Z,11.90
2023-04-23T17:41:57.656Z,11.90
2023-04-23T17:44:24.772Z,11.90
2023-04-23T17:46:55.309Z,12.00
2023-04-23T17:49:22.905Z,11.90
2023-04-23T17:51:50.068Z,11.90
2023-04-23T17:54:17.823Z,11.80
2023-04-23T17:56:45.068Z,11.70
2023-04-23T17:59:12.636Z,11.70
2023-04-23T18:01:39.874Z,11.70
2023-04-23T18:04:07.687Z,11.60
2023-04-23T18:06:36.140Z,11.60
2023-04-23T18:09:03.618Z,11.50
2023-04-23T18:11:30.973Z,11.50
2023-04-23T18:13:58.304Z,11.50
2023-04-23T18:16:25.822Z,11.50
2023-04-23T18:18:53.049Z,11.40
2023-04-23T18:21:20.281Z,11.40
2023-04-23T18:23:47.621Z,11.30
2023-04-23T18:26:14.725Z,11.20
2023-04-23T18:28:41.785Z,11.20
2023-04-23T18:31:10.584Z,11.10
2023-04-23T18:33:49.593Z,11.00
2023-04-23T18:36:33.062Z,11.00
2023-04-23T18:39:00.416Z,10.90
2023-04-23T18:41:31.505Z,10.90
2023-04-23T18:44:00.522Z,10.80
2023-04-23T18:46:29.731Z,10.80
2023-04-23T18:49:09.593Z,10.80
2023-04-23T18:51:44.895Z,10.80
2023-04-23T18:54:15.156Z,10.70
2023-04-23T18:56:42.317Z,10.70
2023-04-23T18:59:15.955Z,10.60
2023-04-23T19:01:44.705Z,10.60
2023-04-23T19:04:14.374Z,10.50
2023-04-23T19:06:41.987Z,10.40
2023-04-23T19:09:09.252Z,10.30
2023-04-23T19:11:38.744Z,10.30
2023-04-23T19:14:09.821Z,10.30
2023-04-23T19:16:37.027Z,10.20
2023-04-23T19:19:04.210Z,10.20
2023-04-23T19:21:32.075Z,10.20
2023-04-23T19:23:59.184Z,10.20
2023-04-23T19:26:26.791Z,10.40
2023-04-23T19:28:54.030Z,10.30
2023-04-23T19:31:21.215Z,10.40
2023-04-23T19:33:48.507Z,10.40
2023-04-23T19:36:15.626Z,10.50
2023-04-23T19:38:42.838Z,10.50
2023-04-23T19:41:10.300Z,10.60
2023-04-23T19:43:37.447Z,10.60
2023-04-23T19:46:04.545Z,10.70
2023-04-23T19:48:31.671Z,10.70
2023-04-23T19:50:59.666Z,10.80
2023-04-23T19:53:27.726Z,10.80
2023-04-23T19:55:54.947Z,10.80
2023-04-23T19:58:22.053Z,10.80
2023-04-23T20:00:49.304Z,10.80
2023-04-23T20:03:16.574Z,10.80
2023-04-23T20:05:44.916Z,10.80
2023-04-23T20:08:15.612Z,10.80
2023-04-23T20:10:43.178Z,10.80
2023-04-23T20:13:10.505Z,10.80
2023-04-23T20:15:37.680Z,10.90
2023-04-23T20:18:05.819Z,10.80
2023-04-23T20:20:35.737Z,10.80
2023-04-23T20:23:02.826Z,10.80
2023-04-23T20:25:30.041Z,10.80
2023-04-23T20:27:57.316Z,10.90
2023-04-23T20:30:24.498Z,11.00
2023-04-23T20:32:51.723Z,10.90
2023-04-23T20:35:18.852Z,10.90
2023-04-23T20:37:46.035Z,10.90
2023-04-23T20:40:14.490Z,11.00
2023-04-23T20:42:42.488Z,11.00
2023-04-23T20:45:10.855Z,11.00
2023-04-23T20:47:37.968Z,11.00
2023-04-23T20:50:06.326Z,10.90
2023-04-23T20:52:33.610Z,11.00
2023-04-23T20:55:00.685Z,11.10
2023-04-23T20:57:27.819Z,11.00
2023-04-23T20:59:54.890Z,11.10
2023-04-23T21:02:22.252Z,11.20
2023-04-23T21:04:49.510Z,11.10
2023-04-23T21:07:16.601Z,11.10
2023-04-23T21:09:43.872Z,11.10
2023-04-23T21:12:11.373Z,11.10
2023-04-23T21:14:38.769Z,11.00
2023-04-23T21:17:05.914Z,11.00
2023-04-23T21:19:33.021Z,11.00
2023-04-23T21:22:00.199Z,10.90
2023-04-23T21:24:27.317Z,10.80
2023-04-23T21:26:54.443Z,10.70
2023-04-23T21:29:21.701Z,10.70
2023-04-23T21:31:52.576Z,10.80
2023-04-23T21:34:20.121Z,10.80
2023-04-23T21:36:47.408Z,10.80
2023-04-23T21:39:14.606Z,10.70
2023-04-23T21:41:42.182Z,10.70
2023-04-23T21:44:09.526Z,10.80
2023-04-23T21:46:36.642Z,10.80
2023-04-23T21:49:03.738Z,10.60
2023-04-23T21:51:30.820Z,10.80
2023-04-23T21:53:57.901Z,10.80
2023-04-23T21:56:25.054Z,10.80
2023-04-23T21:58:52.136Z,10.90
2023-04-23T22:01:19.331Z,10.80
2023-04-23T22:03:47.283Z,10.90
2023-04-23T22:06:16.111Z,11.00
2023-04-23T22:08:46.336Z,10.90
2023-04-23T22:11:17.502Z,10.80
2023-04-23T22:13:44.642Z,10.80
2023-04-23T22:16:26.975Z,10.70
2023-04-23T22:18:57.299Z,10.60
2023-04-23T22:21:24.462Z,10.50
2023-04-23T22:23:51.789Z,10.50
2023-04-23T22:26:18.965Z,10.50
2023-04-23T22:28:46.113Z,10.40
2023-04-23T22:31:13.259Z,10.30
2023-04-23T22:33:40.338Z,10.40
2023-04-23T22:36:07.659Z,10.40
2023-04-23T22:38:35.269Z,10.40
2023-04-23T22:41:02.565Z,10.40
2023-04-23T22:43:29.771Z,10.30
2023-04-23T22:45:57.166Z,10.20
2023-04-23T22:48:24.894Z,10.10
2023-04-23T22:50:52.627Z,10.10
2023-04-23T22:53:19.961Z,10.10
2023-04-23T22:55:47.531Z,10.00
2023-04-23T22:58:14.767Z,9.90
2023-04-23T23:00:42.413Z,9.90
2023-04-23T23:03:09.669Z,9.80
2023-04-23T23:05:36.840Z,9.90
2023-04-23T23:08:03.997Z,9.90
2023-04-23T23:10:31.786Z,9.90
2023-04-23T23:12:58.888Z,10.20
2023-04-23T23:15:25.943Z,10.00
2023-04-23T23:17:54.050Z,9.90
2023-04-23T23:20:21.449Z,9.90
2023-04-23T23:22:48.823Z,10.00
2023-04-23T23:25:16.791Z,10.00
2023-04-23T23:27:43.935Z,9.90
2023-04-23T23:30:11.453Z,9.90
2023-04-23T23:32:38.731Z,10.00
2023-04-23T23:35:06.608Z,10.10
2023-04-23T23:37:35.507Z,10.10
2023-04-23T23:40:02.673Z,10.20
2023-04-23T23:42:29.874Z,10.20
2023-04-23T23:44:56.931Z,10.30
2023-04-23T23:47:24.115Z,10.40
2023-04-23T23:49:51.246Z,10.50
2023-04-23T23:52:18.356Z,10.50
2023-04-23T23:54:45.441Z,10.50
2023-04-23T23:57:12.500Z,10.60
2023-04-23T23:59:39.569Z,10.60
